sensor_id;sensor_type;location;lat;lon;timestamp;P1;durP1;ratioP1;P2;durP2;ratioP2
74808;SDS011;63338;39.544;2.596;2023-11-21T00:01:59;5.68;;;2.92;;
74808;SDS011;63338;39.544;2.596;2023-11-21T00:04:25;5.35;;;2.90;;
74808;SDS011;63338;39.544;2.596;2023-11-21T00:06:53;5.05;;;2.45;;
74808;SDS011;63338;39.544;2.596;2023-11-21T00:09:19;6.35;;;3.50;;
74808;SDS011;63338;39.544;2.596;2023-11-21T00:11:46;7.60;;;2.50;;
74808;SDS011;63338;39.544;2.596;2023-11-21T00:14:12;5.35;;;3.45;;
74808;SDS011;63338;39.544;2.596;2023-11-21T00:16:40;8.50;;;2.97;;
74808;SDS011;63338;39.544;2.596;2023-11-21T00:19:06;6.32;;;2.88;;
74808;SDS011;63338;39.544;2.596;2023-11-21T00:21:32;5.78;;;2.92;;
74808;SDS011;63338;39.544;2.596;2023-11-21T00:23:58;5.57;;;3.33;;
74808;SDS011;63338;39.544;2.596;2023-11-21T00:26:24;8.43;;;2.78;;
74808;SDS011;63338;39.544;2.596;2023-11-21T00:28:50;6.10;;;2.80;;
74808;SDS011;63338;39.544;2.596;2023-11-21T00:31:16;6.43;;;2.58;;
74808;SDS011;63338;39.544;2.596;2023-11-21T00:33:43;5.95;;;2.65;;
74808;SDS011;63338;39.544;2.596;2023-11-21T00:36:09;4.40;;;2.22;;
74808;SDS011;63338;39.544;2.596;2023-11-21T00:38:35;7.65;;;2.50;;
74808;SDS011;63338;39.544;2.596;2023-11-21T00:41:05;10.43;;;2.50;;
74808;SDS011;63338;39.544;2.596;2023-11-21T00:43:31;7.13;;;2.63;;
74808;SDS011;63338;39.544;2.596;2023-11-21T00:45:59;7.43;;;2.20;;
74808;SDS011;63338;39.544;2.596;2023-11-21T00:48:25;7.07;;;2.83;;
74808;SDS011;63338;39.544;2.596;2023-11-21T00:50:51;7.97;;;2.80;;
74808;SDS011;63338;39.544;2.596;2023-11-21T00:53:17;7.03;;;2.40;;
74808;SDS011;63338;39.544;2.596;2023-11-21T00:55:43;5.68;;;3.33;;
74808;SDS011;63338;39.544;2.596;2023-11-21T00:58:10;7.97;;;2.72;;
74808;SDS011;63338;39.544;2.596;2023-11-21T01:00:36;7.22;;;2.70;;
74808;SDS011;63338;39.544;2.596;2023-11-21T01:03:05;9.98;;;3.30;;
74808;SDS011;63338;39.544;2.596;2023-11-21T01:05:33;4.22;;;2.72;;
74808;SDS011;63338;39.544;2.596;2023-11-21T01:07:59;6.18;;;2.50;;
74808;SDS011;63338;39.544;2.596;2023-11-21T01:10:26;9.82;;;2.88;;
74808;SDS011;63338;39.544;2.596;2023-11-21T01:12:51;7.68;;;3.33;;
74808;SDS011;63338;39.544;2.596;2023-11-21T01:15:17;5.38;;;2.60;;
74808;SDS011;63338;39.544;2.596;2023-11-21T01:17:43;8.00;;;2.63;;
74808;SDS011;63338;39.544;2.596;2023-11-21T01:20:10;6.38;;;2.28;;
74808;SDS011;63338;39.544;2.596;2023-11-21T01:22:38;6.03;;;2.90;;
74808;SDS011;63338;39.544;2.596;2023-11-21T01:25:04;6.97;;;2.95;;
74808;SDS011;63338;39.544;2.596;2023-11-21T01:27:35;6.20;;;2.70;;
74808;SDS011;63338;39.544;2.596;2023-11-21T01:30:02;7.15;;;2.80;;
74808;SDS011;63338;39.544;2.596;2023-11-21T01:32:29;7.95;;;2.60;;
74808;SDS011;63338;39.544;2.596;2023-11-21T01:34:55;5.65;;;2.78;;
74808;SDS011;63338;39.544;2.596;2023-11-21T01:37:21;6.90;;;2.70;;
74808;SDS011;63338;39.544;2.596;2023-11-21T01:39:48;7.97;;;3.28;;
74808;SDS011;63338;39.544;2.596;2023-11-21T01:42:14;7.35;;;3.42;;
74808;SDS011;63338;39.544;2.596;2023-11-21T01:44:40;5.40;;;2.65;;
74808;SDS011;63338;39.544;2.596;2023-11-21T01:47:06;5.57;;;3.22;;
74808;SDS011;63338;39.544;2.596;2023-11-21T01:49:35;7.22;;;3.10;;
74808;SDS011;63338;39.544;2.596;2023-11-21T01:52:01;9.20;;;2.90;;
74808;SDS011;63338;39.544;2.596;2023-11-21T01:54:29;6.65;;;3.05;;
74808;SDS011;63338;39.544;2.596;2023-11-21T01:56:59;8.98;;;3.35;;
74808;SDS011;63338;39.544;2.596;2023-11-21T01:59:38;6.22;;;3.28;;
74808;SDS011;63338;39.544;2.596;2023-11-21T02:02:07;6.35;;;3.00;;
74808;SDS011;63338;39.544;2.596;2023-11-21T02:04:34;5.55;;;2.95;;
74808;SDS011;63338;39.544;2.596;2023-11-21T02:07:04;6.55;;;3.17;;
74808;SDS011;63338;39.544;2.596;2023-11-21T02:09:31;8.07;;;3.17;;
74808;SDS011;63338;39.544;2.596;2023-11-21T02:11:58;6.70;;;2.78;;
74808;SDS011;63338;39.544;2.596;2023-11-21T02:14:27;6.72;;;3.15;;
74808;SDS011;63338;39.544;2.596;2023-11-21T02:16:54;6.15;;;3.58;;
74808;SDS011;63338;39.544;2.596;2023-11-21T02:19:22;7.63;;;3.33;;
74808;SDS011;63338;39.544;2.596;2023-11-21T02:21:53;6.60;;;3.63;;
74808;SDS011;63338;39.544;2.596;2023-11-21T02:24:20;5.35;;;3.63;;
74808;SDS011;63338;39.544;2.596;2023-11-21T02:26:51;6.75;;;3.70;;
74808;SDS011;63338;39.544;2.596;2023-11-21T02:29:17;7.45;;;3.35;;
74808;SDS011;63338;39.544;2.596;2023-11-21T02:31:47;7.30;;;3.58;;
74808;SDS011;63338;39.544;2.596;2023-11-21T02:34:17;6.93;;;3.50;;
74808;SDS011;63338;39.544;2.596;2023-11-21T02:36:44;7.10;;;3.80;;
74808;SDS011;63338;39.544;2.596;2023-11-21T02:39:10;6.13;;;3.97;;
74808;SDS011;63338;39.544;2.596;2023-11-21T02:41:39;8.45;;;3.50;;
74808;SDS011;63338;39.544;2.596;2023-11-21T02:44:06;8.75;;;3.65;;
74808;SDS011;63338;39.544;2.596;2023-11-21T02:46:32;6.68;;;3.40;;
74808;SDS011;63338;39.544;2.596;2023-11-21T02:49:02;9.18;;;3.80;;
74808;SDS011;63338;39.544;2.596;2023-11-21T02:51:29;9.25;;;3.40;;
74808;SDS011;63338;39.544;2.596;2023-11-21T02:53:56;7.70;;;3.75;;
74808;SDS011;63338;39.544;2.596;2023-11-21T02:56:28;9.10;;;3.78;;
74808;SDS011;63338;39.544;2.596;2023-11-21T02:58:57;7.68;;;3.78;;
74808;SDS011;63338;39.544;2.596;2023-11-21T03:01:24;5.43;;;3.42;;
74808;SDS011;63338;39.544;2.596;2023-11-21T03:03:51;7.15;;;3.78;;
74808;SDS011;63338;39.544;2.596;2023-11-21T03:06:20;9.07;;;3.78;;
74808;SDS011;63338;39.544;2.596;2023-11-21T03:08:46;7.40;;;4.53;;
74808;SDS011;63338;39.544;2.596;2023-11-21T03:11:13;6.40;;;4.53;;
74808;SDS011;63338;39.544;2.596;2023-11-21T03:13:40;7.97;;;4.20;;
74808;SDS011;63338;39.544;2.596;2023-11-21T03:16:10;7.78;;;4.20;;
74808;SDS011;63338;39.544;2.596;2023-11-21T03:18:37;8.43;;;4.25;;
74808;SDS011;63338;39.544;2.596;2023-11-21T03:21:06;8.13;;;4.80;;
74808;SDS011;63338;39.544;2.596;2023-11-21T03:23:35;8.38;;;4.05;;
74808;SDS011;63338;39.544;2.596;2023-11-21T03:26:02;6.45;;;4.28;;
74808;SDS011;63338;39.544;2.596;2023-11-21T03:28:28;7.80;;;4.72;;
74808;SDS011;63338;39.544;2.596;2023-11-21T03:30:55;6.82;;;4.10;;
74808;SDS011;63338;39.544;2.596;2023-11-21T03:33:21;7.57;;;4.22;;
74808;SDS011;63338;39.544;2.596;2023-11-21T03:35:48;8.07;;;4.50;;
74808;SDS011;63338;39.544;2.596;2023-11-21T03:38:14;9.30;;;4.13;;
74808;SDS011;63338;39.544;2.596;2023-11-21T03:40:41;7.05;;;4.40;;
74808;SDS011;63338;39.544;2.596;2023-11-21T03:43:07;9.15;;;4.55;;
74808;SDS011;63338;39.544;2.596;2023-11-21T03:45:34;6.78;;;3.90;;
74808;SDS011;63338;39.544;2.596;2023-11-21T03:48:00;8.93;;;5.18;;
74808;SDS011;63338;39.544;2.596;2023-11-21T03:50:29;7.80;;;4.20;;
74808;SDS011;63338;39.544;2.596;2023-11-21T03:52:55;7.28;;;4.13;;
74808;SDS011;63338;39.544;2.596;2023-11-21T03:55:21;8.40;;;4.88;;
74808;SDS011;63338;39.544;2.596;2023-11-21T03:57:49;8.38;;;4.03;;
74808;SDS011;63338;39.544;2.596;2023-11-21T04:00:15;7.50;;;4.05;;
74808;SDS011;63338;39.544;2.596;2023-11-21T04:02:42;8.10;;;3.85;;
74808;SDS011;63338;39.544;2.596;2023-11-21T04:05:08;6.95;;;3.70;;
74808;SDS011;63338;39.544;2.596;2023-11-21T04:07:35;7.03;;;3.88;;
74808;SDS011;63338;39.544;2.596;2023-11-21T04:10:02;8.18;;;3.85;;
74808;SDS011;63338;39.544;2.596;2023-11-21T04:12:29;9.52;;;4.18;;
74808;SDS011;63338;39.544;2.596;2023-11-21T04:14:55;5.95;;;3.60;;
74808;SDS011;63338;39.544;2.596;2023-11-21T04:17:21;7.15;;;3.60;;
74808;SDS011;63338;39.544;2.596;2023-11-21T04:19:47;6.18;;;3.25;;
74808;SDS011;63338;39.544;2.596;2023-11-21T04:22:13;5.07;;;3.15;;
74808;SDS011;63338;39.544;2.596;2023-11-21T04:24:39;4.55;;;2.97;;
74808;SDS011;63338;39.544;2.596;2023-11-21T04:27:05;5.90;;;3.00;;
74808;SDS011;63338;39.544;2.596;2023-11-21T04:29:31;4.28;;;2.45;;
74808;SDS011;63338;39.544;2.596;2023-11-21T04:31:57;4.57;;;2.30;;
74808;SDS011;63338;39.544;2.596;2023-11-21T04:34:23;5.72;;;2.50;;
74808;SDS011;63338;39.544;2.596;2023-11-21T04:36:49;4.00;;;2.25;;
74808;SDS011;63338;39.544;2.596;2023-11-21T04:39:15;4.45;;;2.60;;
74808;SDS011;63338;39.544;2.596;2023-11-21T04:41:41;8.23;;;2.72;;
74808;SDS011;63338;39.544;2.596;2023-11-21T04:44:08;4.35;;;2.33;;
74808;SDS011;63338;39.544;2.596;2023-11-21T04:46:34;6.38;;;2.38;;
74808;SDS011;63338;39.544;2.596;2023-11-21T04:49:00;4.72;;;1.90;;
74808;SDS011;63338;39.544;2.596;2023-11-21T04:51:26;4.43;;;2.20;;
74808;SDS011;63338;39.544;2.596;2023-11-21T04:53:52;7.45;;;2.90;;
74808;SDS011;63338;39.544;2.596;2023-11-21T04:56:18;6.32;;;2.63;;
74808;SDS011;63338;39.544;2.596;2023-11-21T04:58:45;4.43;;;2.53;;
74808;SDS011;63338;39.544;2.596;2023-11-21T05:01:11;4.78;;;2.35;;
74808;SDS011;63338;39.544;2.596;2023-11-21T05:03:37;5.45;;;3.00;;
74808;SDS011;63338;39.544;2.596;2023-11-21T05:06:04;5.18;;;2.50;;
74808;SDS011;63338;39.544;2.596;2023-11-21T05:08:30;3.97;;;2.30;;
74808;SDS011;63338;39.544;2.596;2023-11-21T05:10:56;4.45;;;2.78;;
74808;SDS011;63338;39.544;2.596;2023-11-21T05:13:22;5.32;;;2.63;;
74808;SDS011;63338;39.544;2.596;2023-11-21T05:15:53;4.63;;;2.13;;
74808;SDS011;63338;39.544;2.596;2023-11-21T05:18:22;5.75;;;2.28;;
74808;SDS011;63338;39.544;2.596;2023-11-21T05:20:47;6.25;;;2.72;;
74808;SDS011;63338;39.544;2.596;2023-11-21T05:23:13;7.57;;;3.08;;
74808;SDS011;63338;39.544;2.596;2023-11-21T05:25:39;6.63;;;2.58;;
74808;SDS011;63338;39.544;2.596;2023-11-21T05:28:06;5.75;;;1.92;;
74808;SDS011;63338;39.544;2.596;2023-11-21T05:30:32;3.75;;;1.60;;
74808;SDS011;63338;39.544;2.596;2023-11-21T05:32:58;4.38;;;1.60;;
74808;SDS011;63338;39.544;2.596;2023-11-21T05:35:24;3.20;;;1.73;;
74808;SDS011;63338;39.544;2.596;2023-11-21T05:37:50;6.00;;;0.90;;
74808;SDS011;63338;39.544;2.596;2023-11-21T05:40:16;3.58;;;0.65;;
74808;SDS011;63338;39.544;2.596;2023-11-21T05:42:43;4.60;;;0.90;;
74808;SDS011;63338;39.544;2.596;2023-11-21T05:45:10;3.17;;;0.75;;
74808;SDS011;63338;39.544;2.596;2023-11-21T05:47:39;3.30;;;0.50;;
74808;SDS011;63338;39.544;2.596;2023-11-21T05:50:08;2.92;;;0.60;;
74808;SDS011;63338;39.544;2.596;2023-11-21T05:52:40;4.28;;;1.20;;
74808;SDS011;63338;39.544;2.596;2023-11-21T05:55:07;4.93;;;0.52;;
74808;SDS011;63338;39.544;2.596;2023-11-21T05:57:34;3.65;;;0.40;;
74808;SDS011;63338;39.544;2.596;2023-11-21T06:02:46;1.65;;;0.10;;
74808;SDS011;63338;39.544;2.596;2023-11-21T06:05:15;3.72;;;0.40;;
74808;SDS011;63338;39.544;2.596;2023-11-21T06:07:43;2.65;;;0.30;;
74808;SDS011;63338;39.544;2.596;2023-11-21T06:10:10;2.97;;;0.30;;
74808;SDS011;63338;39.544;2.596;2023-11-21T06:12:38;3.50;;;0.30;;
74808;SDS011;63338;39.544;2.596;2023-11-21T06:15:06;1.98;;;0.47;;
74808;SDS011;63338;39.544;2.596;2023-11-21T06:17:35;4.90;;;0.20;;
74808;SDS011;63338;39.544;2.596;2023-11-21T06:20:02;3.63;;;0.25;;
74808;SDS011;63338;39.544;2.596;2023-11-21T06:22:42;1.10;;;0.22;;
74808;SDS011;63338;39.544;2.596;2023-11-21T06:25:09;1.35;;;0.28;;
74808;SDS011;63338;39.544;2.596;2023-11-21T06:27:45;4.63;;;0.30;;
74808;SDS011;63338;39.544;2.596;2023-11-21T06:30:13;2.20;;;0.35;;
74808;SDS011;63338;39.544;2.596;2023-11-21T06:32:40;2.35;;;0.47;;
74808;SDS011;63338;39.544;2.596;2023-11-21T06:35:07;3.13;;;0.40;;
74808;SDS011;63338;39.544;2.596;2023-11-21T06:37:35;4.22;;;0.60;;
74808;SDS011;63338;39.544;2.596;2023-11-21T06:40:01;3.80;;;0.40;;
74808;SDS011;63338;39.544;2.596;2023-11-21T06:42:29;3.38;;;0.43;;
74808;SDS011;63338;39.544;2.596;2023-11-21T06:44:55;5.28;;;0.55;;
74808;SDS011;63338;39.544;2.596;2023-11-21T06:47:23;4.88;;;0.45;;
74808;SDS011;63338;39.544;2.596;2023-11-21T06:49:53;6.40;;;0.63;;
74808;SDS011;63338;39.544;2.596;2023-11-21T06:52:19;5.53;;;0.60;;
74808;SDS011;63338;39.544;2.596;2023-11-21T06:54:45;7.43;;;0.63;;
74808;SDS011;63338;39.544;2.596;2023-11-21T06:57:13;4.15;;;0.50;;
74808;SDS011;63338;39.544;2.596;2023-11-21T06:59:39;3.13;;;0.60;;
74808;SDS011;63338;39.544;2.596;2023-11-21T07:02:05;5.20;;;0.50;;
74808;SDS011;63338;39.544;2.596;2023-11-21T07:04:32;8.93;;;0.80;;
74808;SDS011;63338;39.544;2.596;2023-11-21T07:06:58;3.15;;;0.65;;
74808;SDS011;63338;39.544;2.596;2023-11-21T07:09:25;5.55;;;0.60;;
74808;SDS011;63338;39.544;2.596;2023-11-21T07:11:51;4.72;;;0.50;;
74808;SDS011;63338;39.544;2.596;2023-11-21T07:14:17;7.05;;;1.02;;
74808;SDS011;63338;39.544;2.596;2023-11-21T07:16:45;6.30;;;0.60;;
74808;SDS011;63338;39.544;2.596;2023-11-21T07:19:11;4.00;;;0.50;;
74808;SDS011;63338;39.544;2.596;2023-11-21T07:21:38;7.82;;;0.80;;
74808;SDS011;63338;39.544;2.596;2023-11-21T07:24:05;3.25;;;0.65;;
74808;SDS011;63338;39.544;2.596;2023-11-21T07:26:32;3.88;;;0.35;;
74808;SDS011;63338;39.544;2.596;2023-11-21T07:28:59;1.95;;;0.38;;
74808;SDS011;63338;39.544;2.596;2023-11-21T07:31:28;5.03;;;0.70;;
74808;SDS011;63338;39.544;2.596;2023-11-21T07:33:55;4.65;;;0.52;;
74808;SDS011;63338;39.544;2.596;2023-11-21T07:36:24;8.05;;;0.80;;
74808;SDS011;63338;39.544;2.596;2023-11-21T07:38:50;4.57;;;0.73;;
74808;SDS011;63338;39.544;2.596;2023-11-21T07:41:19;10.38;;;0.70;;
74808;SDS011;63338;39.544;2.596;2023-11-21T07:43:47;6.30;;;0.68;;
74808;SDS011;63338;39.544;2.596;2023-11-21T07:46:13;6.00;;;0.43;;
74808;SDS011;63338;39.544;2.596;2023-11-21T07:48:40;7.65;;;0.60;;
74808;SDS011;63338;39.544;2.596;2023-11-21T07:51:11;9.38;;;0.60;;
74808;SDS011;63338;39.544;2.596;2023-11-21T07:53:38;3.20;;;0.52;;
74808;SDS011;63338;39.544;2.596;2023-11-21T07:56:05;9.13;;;0.98;;
74808;SDS011;63338;39.544;2.596;2023-11-21T07:58:36;4.50;;;0.52;;
74808;SDS011;63338;39.544;2.596;2023-11-21T08:01:02;5.80;;;0.70;;
74808;SDS011;63338;39.544;2.596;2023-11-21T08:03:29;7.28;;;0.77;;
74808;SDS011;63338;39.544;2.596;2023-11-21T08:05:56;7.20;;;0.88;;
74808;SDS011;63338;39.544;2.596;2023-11-21T08:08:23;5.95;;;0.60;;
74808;SDS011;63338;39.544;2.596;2023-11-21T08:10:49;2.78;;;0.63;;
74808;SDS011;63338;39.544;2.596;2023-11-21T08:13:22;5.43;;;0.50;;
74808;SDS011;63338;39.544;2.596;2023-11-21T08:15:48;11.27;;;1.85;;
74808;SDS011;63338;39.544;2.596;2023-11-21T08:18:15;4.40;;;0.50;;
74808;SDS011;63338;39.544;2.596;2023-11-21T08:20:42;6.32;;;0.50;;
74808;SDS011;63338;39.544;2.596;2023-11-21T08:23:14;6.85;;;0.98;;
74808;SDS011;63338;39.544;2.596;2023-11-21T08:25:44;3.05;;;0.47;;
74808;SDS011;63338;39.544;2.596;2023-11-21T08:28:11;5.50;;;0.68;;
74808;SDS011;63338;39.544;2.596;2023-11-21T08:30:39;5.40;;;0.65;;
74808;SDS011;63338;39.544;2.596;2023-11-21T08:33:07;3.80;;;0.40;;
74808;SDS011;63338;39.544;2.596;2023-11-21T08:35:34;8.43;;;0.63;;
74808;SDS011;63338;39.544;2.596;2023-11-21T08:38:01;7.50;;;0.85;;
74808;SDS011;63338;39.544;2.596;2023-11-21T08:40:28;3.22;;;0.50;;
74808;SDS011;63338;39.544;2.596;2023-11-21T08:42:54;4.75;;;0.95;;
74808;SDS011;63338;39.544;2.596;2023-11-21T08:45:23;4.50;;;0.73;;
74808;SDS011;63338;39.544;2.596;2023-11-21T08:47:50;4.90;;;0.80;;
74808;SDS011;63338;39.544;2.596;2023-11-21T08:50:16;5.30;;;0.80;;
74808;SDS011;63338;39.544;2.596;2023-11-21T08:52:43;9.13;;;0.77;;
74808;SDS011;63338;39.544;2.596;2023-11-21T08:55:11;6.88;;;0.85;;
74808;SDS011;63338;39.544;2.596;2023-11-21T08:57:38;6.20;;;0.75;;
74808;SDS011;63338;39.544;2.596;2023-11-21T09:00:06;5.03;;;0.60;;
74808;SDS011;63338;39.544;2.596;2023-11-21T09:02:37;3.63;;;0.52;;
74808;SDS011;63338;39.544;2.596;2023-11-21T09:05:06;8.68;;;1.05;;
74808;SDS011;63338;39.544;2.596;2023-11-21T09:07:34;7.35;;;1.20;;
74808;SDS011;63338;39.544;2.596;2023-11-21T09:10:01;5.78;;;0.82;;
74808;SDS011;63338;39.544;2.596;2023-11-21T09:12:35;6.57;;;1.02;;
74808;SDS011;63338;39.544;2.596;2023-11-21T09:15:03;6.00;;;1.10;;
74808;SDS011;63338;39.544;2.596;2023-11-21T09:17:31;7.80;;;1.33;;
74808;SDS011;63338;39.544;2.596;2023-11-21T09:19:57;8.90;;;1.10;;
74808;SDS011;63338;39.544;2.596;2023-11-21T09:22:23;7.40;;;0.98;;
74808;SDS011;63338;39.544;2.596;2023-11-21T09:24:53;10.20;;;1.90;;
74808;SDS011;63338;39.544;2.596;2023-11-21T09:27:19;7.53;;;0.90;;
74808;SDS011;63338;39.544;2.596;2023-11-21T09:29:46;9.23;;;1.02;;
74808;SDS011;63338;39.544;2.596;2023-11-21T09:32:13;7.47;;;1.17;;
74808;SDS011;63338;39.544;2.596;2023-11-21T09:34:42;10.60;;;1.00;;
74808;SDS011;63338;39.544;2.596;2023-11-21T09:37:08;10.45;;;1.20;;
74808;SDS011;63338;39.544;2.596;2023-11-21T09:39:35;11.48;;;1.23;;
74808;SDS011;63338;39.544;2.596;2023-11-21T09:44:45;6.50;;;0.93;;
74808;SDS011;63338;39.544;2.596;2023-11-21T09:47:30;8.93;;;1.23;;
74808;SDS011;63338;39.544;2.596;2023-11-21T09:49:56;7.57;;;1.10;;
74808;SDS011;63338;39.544;2.596;2023-11-21T09:52:27;7.88;;;0.90;;
74808;SDS011;63338;39.544;2.596;2023-11-21T09:54:54;9.07;;;1.20;;
74808;SDS011;63338;39.544;2.596;2023-11-21T09:57:24;9.48;;;1.33;;
74808;SDS011;63338;39.544;2.596;2023-11-21T09:59:51;9.05;;;0.95;;
74808;SDS011;63338;39.544;2.596;2023-11-21T10:04:51;10.55;;;0.98;;
74808;SDS011;63338;39.544;2.596;2023-11-21T10:07:18;13.00;;;1.20;;
74808;SDS011;63338;39.544;2.596;2023-11-21T10:09:45;7.35;;;0.98;;
74808;SDS011;63338;39.544;2.596;2023-11-21T10:12:14;7.88;;;1.10;;
74808;SDS011;63338;39.544;2.596;2023-11-21T10:14:42;9.15;;;1.27;;
74808;SDS011;63338;39.544;2.596;2023-11-21T10:17:12;5.82;;;0.90;;
74808;SDS011;63338;39.544;2.596;2023-11-21T10:19:51;7.95;;;0.95;;
74808;SDS011;63338;39.544;2.596;2023-11-21T10:22:19;7.22;;;0.90;;
74808;SDS011;63338;39.544;2.596;2023-11-21T10:24:46;7.55;;;1.05;;
74808;SDS011;63338;39.544;2.596;2023-11-21T10:27:12;8.35;;;1.02;;
74808;SDS011;63338;39.544;2.596;2023-11-21T10:29:41;9.32;;;1.30;;
74808;SDS011;63338;39.544;2.596;2023-11-21T10:32:07;9.40;;;1.40;;
74808;SDS011;63338;39.544;2.596;2023-11-21T10:34:33;6.35;;;1.60;;
74808;SDS011;63338;39.544;2.596;2023-11-21T10:37:07;9.18;;;1.20;;
74808;SDS011;63338;39.544;2.596;2023-11-21T10:39:38;9.05;;;1.42;;
74808;SDS011;63338;39.544;2.596;2023-11-21T10:42:07;6.60;;;0.80;;
74808;SDS011;63338;39.544;2.596;2023-11-21T10:44:35;5.55;;;0.65;;
74808;SDS011;63338;39.544;2.596;2023-11-21T10:47:01;8.45;;;1.15;;
74808;SDS011;63338;39.544;2.596;2023-11-21T10:49:27;4.38;;;1.08;;
74808;SDS011;63338;39.544;2.596;2023-11-21T10:51:54;7.10;;;1.00;;
74808;SDS011;63338;39.544;2.596;2023-11-21T10:54:21;10.73;;;1.00;;
74808;SDS011;63338;39.544;2.596;2023-11-21T10:56:53;10.88;;;1.33;;
74808;SDS011;63338;39.544;2.596;2023-11-21T10:59:24;5.60;;;0.95;;
74808;SDS011;63338;39.544;2.596;2023-11-21T11:01:54;7.53;;;0.90;;
74808;SDS011;63338;39.544;2.596;2023-11-21T11:04:24;8.93;;;0.93;;
74808;SDS011;63338;39.544;2.596;2023-11-21T11:06:56;7.20;;;1.13;;
74808;SDS011;63338;39.544;2.596;2023-11-21T11:09:27;8.07;;;0.98;;
74808;SDS011;63338;39.544;2.596;2023-11-21T11:11:53;7.22;;;0.88;;
74808;SDS011;63338;39.544;2.596;2023-11-21T11:14:19;6.07;;;0.80;;
74808;SDS011;63338;39.544;2.596;2023-11-21T11:16:53;7.25;;;0.88;;
74808;SDS011;63338;39.544;2.596;2023-11-21T11:19:20;7.40;;;1.08;;
74808;SDS011;63338;39.544;2.596;2023-11-21T11:38:47;5.95;;;1.13;;
74808;SDS011;63338;39.544;2.596;2023-11-21T11:41:24;8.40;;;0.82;;
74808;SDS011;63338;39.544;2.596;2023-11-21T11:43:56;6.35;;;1.10;;
74808;SDS011;63338;39.544;2.596;2023-11-21T11:46:39;10.07;;;0.95;;
74808;SDS011;63338;39.544;2.596;2023-11-21T11:49:10;5.82;;;0.98;;
74808;SDS011;63338;39.544;2.596;2023-11-21T11:51:59;12.38;;;1.92;;
74808;SDS011;63338;39.544;2.596;2023-11-21T11:54:55;5.47;;;1.45;;
74808;SDS011;63338;39.544;2.596;2023-11-21T11:57:24;7.90;;;0.90;;
74808;SDS011;63338;39.544;2.596;2023-11-21T12:02:40;11.73;;;0.85;;
74808;SDS011;63338;39.544;2.596;2023-11-21T12:05:16;11.27;;;1.40;;
74808;SDS011;63338;39.544;2.596;2023-11-21T12:07:50;7.10;;;1.20;;
74808;SDS011;63338;39.544;2.596;2023-11-21T12:10:19;6.53;;;1.10;;
74808;SDS011;63338;39.544;2.596;2023-11-21T12:12:51;7.97;;;0.93;;
74808;SDS011;63338;39.544;2.596;2023-11-21T12:15:19;10.95;;;1.42;;
74808;SDS011;63338;39.544;2.596;2023-11-21T12:17:45;8.23;;;0.98;;
74808;SDS011;63338;39.544;2.596;2023-11-21T12:20:12;7.75;;;1.20;;
74808;SDS011;63338;39.544;2.596;2023-11-21T12:22:46;10.85;;;1.10;;
74808;SDS011;63338;39.544;2.596;2023-11-21T12:25:14;6.03;;;0.95;;
74808;SDS011;63338;39.544;2.596;2023-11-21T12:27:48;7.82;;;0.93;;
74808;SDS011;63338;39.544;2.596;2023-11-21T12:30:16;9.25;;;1.15;;
74808;SDS011;63338;39.544;2.596;2023-11-21T12:32:50;7.45;;;1.02;;
74808;SDS011;63338;39.544;2.596;2023-11-21T12:35:17;9.20;;;0.80;;
74808;SDS011;63338;39.544;2.596;2023-11-21T12:37:45;7.65;;;0.82;;
74808;SDS011;63338;39.544;2.596;2023-11-21T12:40:12;5.78;;;0.95;;
74808;SDS011;63338;39.544;2.596;2023-11-21T12:42:41;6.60;;;1.00;;
74808;SDS011;63338;39.544;2.596;2023-11-21T12:47:43;5.70;;;0.93;;
74808;SDS011;63338;39.544;2.596;2023-11-21T12:50:18;4.90;;;0.98;;
74808;SDS011;63338;39.544;2.596;2023-11-21T12:52:49;7.70;;;1.25;;
74808;SDS011;63338;39.544;2.596;2023-11-21T12:55:23;5.88;;;1.15;;
74808;SDS011;63338;39.544;2.596;2023-11-21T12:57:53;9.93;;;0.75;;
74808;SDS011;63338;39.544;2.596;2023-11-21T13:00:54;6.28;;;1.10;;
74808;SDS011;63338;39.544;2.596;2023-11-21T13:03:15;5.93;;;0.70;;
74808;SDS011;63338;39.544;2.596;2023-11-21T13:05:44;5.95;;;0.90;;
74808;SDS011;63338;39.544;2.596;2023-11-21T13:08:13;10.13;;;0.85;;
74808;SDS011;63338;39.544;2.596;2023-11-21T13:13:12;6.10;;;1.40;;
74808;SDS011;63338;39.544;2.596;2023-11-21T13:15:50;4.97;;;0.70;;
74808;SDS011;63338;39.544;2.596;2023-11-21T13:18:18;12.60;;;0.93;;
74808;SDS011;63338;39.544;2.596;2023-11-21T13:20:47;7.55;;;0.60;;
74808;SDS011;63338;39.544;2.596;2023-11-21T13:23:13;5.75;;;0.70;;
74808;SDS011;63338;39.544;2.596;2023-11-21T13:25:44;8.75;;;1.00;;
74808;SDS011;63338;39.544;2.596;2023-11-21T13:28:13;6.63;;;0.90;;
74808;SDS011;63338;39.544;2.596;2023-11-21T13:30:41;3.67;;;0.50;;
74808;SDS011;63338;39.544;2.596;2023-11-21T13:33:07;5.88;;;0.88;;
74808;SDS011;63338;39.544;2.596;2023-11-21T13:35:35;4.80;;;0.85;;
74808;SDS011;63338;39.544;2.596;2023-11-21T13:38:05;5.00;;;0.70;;
74808;SDS011;63338;39.544;2.596;2023-11-21T13:40:36;5.18;;;0.50;;
74808;SDS011;63338;39.544;2.596;2023-11-21T13:43:14;4.38;;;0.80;;
74808;SDS011;63338;39.544;2.596;2023-11-21T13:45:42;4.35;;;0.60;;
74808;SDS011;63338;39.544;2.596;2023-11-21T13:48:10;5.15;;;0.98;;
74808;SDS011;63338;39.544;2.596;2023-11-21T13:50:42;5.20;;;0.90;;
74808;SDS011;63338;39.544;2.596;2023-11-21T13:53:21;5.00;;;1.25;;
74808;SDS011;63338;39.544;2.596;2023-11-21T13:55:51;5.40;;;1.30;;
74808;SDS011;63338;39.544;2.596;2023-11-21T13:58:25;5.50;;;1.27;;
74808;SDS011;63338;39.544;2.596;2023-11-21T14:01:07;6.95;;;1.13;;
74808;SDS011;63338;39.544;2.596;2023-11-21T14:03:52;4.72;;;0.90;;
74808;SDS011;63338;39.544;2.596;2023-11-21T14:06:23;4.80;;;1.30;;
74808;SDS011;63338;39.544;2.596;2023-11-21T14:08:58;5.13;;;1.30;;
74808;SDS011;63338;39.544;2.596;2023-11-21T14:11:24;5.28;;;1.00;;
74808;SDS011;63338;39.544;2.596;2023-11-21T14:13:50;7.70;;;1.00;;
74808;SDS011;63338;39.544;2.596;2023-11-21T14:16:16;6.55;;;1.10;;
74808;SDS011;63338;39.544;2.596;2023-11-21T14:18:43;6.50;;;1.10;;
74808;SDS011;63338;39.544;2.596;2023-11-21T14:21:24;5.50;;;0.85;;
74808;SDS011;63338;39.544;2.596;2023-11-21T14:23:49;3.45;;;0.77;;
74808;SDS011;63338;39.544;2.596;2023-11-21T14:26:16;4.72;;;0.80;;
74808;SDS011;63338;39.544;2.596;2023-11-21T14:28:42;5.70;;;0.80;;
74808;SDS011;63338;39.544;2.596;2023-11-21T14:31:08;8.15;;;0.82;;
74808;SDS011;63338;39.544;2.596;2023-11-21T14:33:39;5.93;;;0.70;;
74808;SDS011;63338;39.544;2.596;2023-11-21T14:36:05;5.55;;;1.08;;
74808;SDS011;63338;39.544;2.596;2023-11-21T14:38:36;7.15;;;0.65;;
74808;SDS011;63338;39.544;2.596;2023-11-21T14:41:08;3.53;;;0.65;;
74808;SDS011;63338;39.544;2.596;2023-11-21T14:43:36;5.53;;;0.75;;
74808;SDS011;63338;39.544;2.596;2023-11-21T14:46:04;4.18;;;0.85;;
74808;SDS011;63338;39.544;2.596;2023-11-21T14:48:35;5.97;;;0.90;;
74808;SDS011;63338;39.544;2.596;2023-11-21T14:51:08;5.93;;;0.60;;
74808;SDS011;63338;39.544;2.596;2023-11-21T14:53:41;5.80;;;0.80;;
74808;SDS011;63338;39.544;2.596;2023-11-21T14:56:22;6.60;;;0.80;;
74808;SDS011;63338;39.544;2.596;2023-11-21T14:58:54;4.68;;;0.75;;
74808;SDS011;63338;39.544;2.596;2023-11-21T15:01:26;4.53;;;0.38;;
74808;SDS011;63338;39.544;2.596;2023-11-21T15:04:11;4.25;;;0.40;;
74808;SDS011;63338;39.544;2.596;2023-11-21T15:06:55;11.30;;;0.60;;
74808;SDS011;63338;39.544;2.596;2023-11-21T15:09:23;4.00;;;0.50;;
74808;SDS011;63338;39.544;2.596;2023-11-21T15:12:01;5.25;;;0.60;;
74808;SDS011;63338;39.544;2.596;2023-11-21T15:14:48;4.50;;;0.80;;
74808;SDS011;63338;39.544;2.596;2023-11-21T15:17:19;5.47;;;0.57;;
74808;SDS011;63338;39.544;2.596;2023-11-21T15:19:49;4.57;;;1.10;;
74808;SDS011;63338;39.544;2.596;2023-11-21T15:22:15;4.05;;;0.70;;
74808;SDS011;63338;39.544;2.596;2023-11-21T15:24:43;6.60;;;0.90;;
74808;SDS011;63338;39.544;2.596;2023-11-21T15:27:12;4.10;;;0.52;;
74808;SDS011;63338;39.544;2.596;2023-11-21T15:29:39;5.85;;;0.75;;